Wilson Gdynia — 8PSA — position and weather

sailwx.info

Track history (hours):
 
Tides and Currents Weather Stations Pressure Air Temp Water Temp Dewpoint Dewpoint Depression Visibility Wind Speed Wind Dir Waves Ship Positions

Wilson Gdynia

Last reported at 2015-Feb-28 15:08 UTC. Time now 2015-Mar-06 07:36 UTC.
Position N 59°54' E 021°33'.

Length 88 m; draft 5.5 m.

Type: Cargo ship. MMSI: 314192000.

Date/timePositionNaut miles runAvg speedWind from/ knotsBaromVisibWave heightAir tempDewpointWater temp
2015-Feb-28 15:08N 59°54' E 021°33'610.5
2015-Feb-28 14:33N 59°50' E 021°23'9 8.7
2015-Feb-28 13:33N 59°41' E 021°21'8 7.9
2015-Feb-28 12:32N 59°33' E 021°17'296 8.2
2015-Feb-27 00:14N 55°41' E 015°34'6 8.4
2015-Feb-26 23:29N 55°39' E 015°24'8 8.6
2015-Feb-26 22:33N 55°35' E 015°12'8 8.3
2015-Feb-26 21:33N 55°31' E 014°59'8 7.9
2015-Feb-26 20:33N 55°27' E 014°47'8 7.8
2015-Feb-26 19:33N 55°22' E 014°36'8 8.4
2015-Feb-26 18:33N 55°16' E 014°27'8 8.0
2015-Feb-26 17:33N 55°10' E 014°17'8 7.9
2015-Feb-26 16:33N 55°10' E 014°03'8 8.0
2015-Feb-26 15:33N 55°11' E 013°49'8 8.0
2015-Feb-26 14:33N 55°12' E 013°35'8 8.0
2015-Feb-26 13:33N 55°13' E 013°21'8 8.3
2015-Feb-26 12:33N 55°14' E 013°07'8 8.2
2015-Feb-26 11:33N 55°15' E 012°52'8 7.9
2015-Feb-26 10:33N 55°18' E 012°40'7 7.0
2015-Feb-26 09:33N 55°25' E 012°40'7 7.2
2015-Feb-26 08:33N 55°32' E 012°42'6 6.5
2015-Feb-26 07:33N 55°38' E 012°42'7 6.7
2015-Feb-26 06:33N 55°45' E 012°41'7 6.9
2015-Feb-26 05:33N 55°52' E 012°39'7 7.2
2015-Feb-26 04:33N 55°59' E 012°38'6 6.0
2015-Feb-26 03:33N 56°05' E 012°35'6 6.2
2015-Feb-26 02:33N 56°09' E 012°27'8 8.1
2015-Feb-26 01:33N 56°13' E 012°15'8 8.0
2015-Feb-26 00:33N 56°18' E 012°03'10 8.3
2015-Feb-25 23:21N 56°28' E 011°59'7 8.2
2015-Feb-25 22:33N 56°34' E 011°57'8 8.1
2015-Feb-25 21:33N 56°42' E 011°53'8 7.8
2015-Feb-25 20:33N 56°49' E 011°48'8 7.6
2015-Feb-25 19:33N 56°57' E 011°44'7 7.4
2015-Feb-25 18:33N 57°04' E 011°40'7 7.5
2015-Feb-25 17:33N 57°11' E 011°36'8 8.0
2015-Feb-25 16:33N 57°18' E 011°30'8 7.7
2015-Feb-25 15:33N 57°25' E 011°26'7 7.4
2015-Feb-25 14:33N 57°31' E 011°17'8 8.3
2015-Feb-25 13:33N 57°37' E 011°06'8 7.8
2015-Feb-25 12:33N 57°42' E 010°55'8 8.1
2015-Feb-25 11:33N 57°47' E 010°43'12 9.4
2015-Feb-25 10:15N 57°48' E 010°20'126 7.5
2015-Feb-24 17:34N 58°01' E 006°25'6 5.8
2015-Feb-24 16:34N 58°04' E 006°16'6 5.7
2015-Feb-24 15:33N 58°06' E 006°06'6 5.9
2015-Feb-24 14:33N 58°08' E 005°56'13 6.3
2015-Feb-24 12:32N 58°14' E 005°34'  
Track history (hours):
 
Tides and Currents Weather Stations Pressure Air Temp Water Temp Dewpoint Dewpoint Depression Visibility Wind Speed Wind Dir Waves Ship Positions

Wilson Gdynia

Last reported at 2015-Feb-28 15:08 UTC. Time now 2015-Mar-06 07:36 UTC.
Position N 59°54' E 021°33'.

Length 88 m; draft 5.5 m.

Type: Cargo ship. MMSI: 314192000.

Date/timePositionNaut miles runAvg speedWind from/ knotsBaromVisibWave heightAir tempDewpointWater temp
2015-Feb-28 15:08N 59°54' E 021°33'610.5
2015-Feb-28 14:33N 59°50' E 021°23'9 8.7
2015-Feb-28 13:33N 59°41' E 021°21'8 7.9
2015-Feb-28 12:32N 59°33' E 021°17'296 8.2
2015-Feb-27 00:14N 55°41' E 015°34'6 8.4
2015-Feb-26 23:29N 55°39' E 015°24'8 8.6
2015-Feb-26 22:33N 55°35' E 015°12'8 8.3
2015-Feb-26 21:33N 55°31' E 014°59'8 7.9
2015-Feb-26 20:33N 55°27' E 014°47'8 7.8
2015-Feb-26 19:33N 55°22' E 014°36'8 8.4
2015-Feb-26 18:33N 55°16' E 014°27'8 8.0
2015-Feb-26 17:33N 55°10' E 014°17'8 7.9
2015-Feb-26 16:33N 55°10' E 014°03'8 8.0
2015-Feb-26 15:33N 55°11' E 013°49'8 8.0
2015-Feb-26 14:33N 55°12' E 013°35'8 8.0
2015-Feb-26 13:33N 55°13' E 013°21'8 8.3
2015-Feb-26 12:33N 55°14' E 013°07'8 8.2
2015-Feb-26 11:33N 55°15' E 012°52'8 7.9
2015-Feb-26 10:33N 55°18' E 012°40'7 7.0
2015-Feb-26 09:33N 55°25' E 012°40'7 7.2
2015-Feb-26 08:33N 55°32' E 012°42'6 6.5
2015-Feb-26 07:33N 55°38' E 012°42'7 6.7
2015-Feb-26 06:33N 55°45' E 012°41'7 6.9
2015-Feb-26 05:33N 55°52' E 012°39'7 7.2
2015-Feb-26 04:33N 55°59' E 012°38'6 6.0
2015-Feb-26 03:33N 56°05' E 012°35'6 6.2
2015-Feb-26 02:33N 56°09' E 012°27'8 8.1
2015-Feb-26 01:33N 56°13' E 012°15'8 8.0
2015-Feb-26 00:33N 56°18' E 012°03'10 8.3
2015-Feb-25 23:21N 56°28' E 011°59'7 8.2
2015-Feb-25 22:33N 56°34' E 011°57'8 8.1
2015-Feb-25 21:33N 56°42' E 011°53'8 7.8
2015-Feb-25 20:33N 56°49' E 011°48'8 7.6
2015-Feb-25 19:33N 56°57' E 011°44'7 7.4
2015-Feb-25 18:33N 57°04' E 011°40'7 7.5
2015-Feb-25 17:33N 57°11' E 011°36'8 8.0
2015-Feb-25 16:33N 57°18' E 011°30'8 7.7
2015-Feb-25 15:33N 57°25' E 011°26'7 7.4
2015-Feb-25 14:33N 57°31' E 011°17'8 8.3
2015-Feb-25 13:33N 57°37' E 011°06'8 7.8
2015-Feb-25 12:33N 57°42' E 010°55'8 8.1
2015-Feb-25 11:33N 57°47' E 010°43'12 9.4
2015-Feb-25 10:15N 57°48' E 010°20'126 7.5
2015-Feb-24 17:34N 58°01' E 006°25'6 5.8
2015-Feb-24 16:34N 58°04' E 006°16'6 5.7
2015-Feb-24 15:33N 58°06' E 006°06'6 5.9
2015-Feb-24 14:33N 58°08' E 005°56'13 6.3
2015-Feb-24 12:32N 58°14' E 005°34'  

Dump ship's entire track history